M I D A S
Marine Information and Data Acquisition System
Tripno 718 of the Zeeleeuw from 2004-05-17 06:24:55 to 2004-05-17 15:07:46
Back to CruiseResearch ActivitiesStationsMapUnderway DataData graphs

EquipmentUnitsComment
TimeDGPSUTC
LatitudeDGPSDM.mWGS84
LongitudeDGPSDM.mWGS84
TemperatureSBE03/SBE38deg celciusITS90
ConductivitySBE21S/mITS90
SalinitySBE21 Practical Salinity Units
ChlorophylAChelsea fluorimeterg/lCalibrated in Aceton
Missing or incorrect values are displayed as -999
Sea surface data collected by the RV Zeeleeuw from 2004-05-17 06:24:55 to 2004-05-17 15:07:46
Time Latitude Longitude Temperature Conductivity Salinity ChlorophylA
2004-05-17 06:25:58 51°13.599 2°56.09 19.27375 3.980043 25.506703 0.97164
2004-05-17 06:26:58 51°13.608 2°56.065 19.284706 3.979411 25.505552 1.005349
2004-05-17 06:27:59 51°13.627 2°56.006 19.305388 3.978884 25.505896 1.005349
2004-05-17 06:28:59 51°13.651 2°55.935 19.294884 3.978462 25.505874 1.005349
2004-05-17 06:29:59 51°13.677 2°55.819 19.304407 3.977935 25.505474 0.97164
2004-05-17 06:30:58 51°13.685 2°55.757 19.359476 3.977408 25.505073 0.97164
2004-05-17 06:31:58 51°13.717 2°55.77 19.155531 3.976881 25.504673 0.97164
2004-05-17 06:32:57 51°13.721 2°55.771 19.243569 3.976249 25.503523 1.005349
2004-05-17 06:33:58 51°13.748 2°55.736 19.254449 3.975827 25.505364 0.97164
2004-05-17 06:34:57 51°13.79 2°55.679 19.217591 3.9753 25.504965 0.97164
2004-05-17 06:35:57 51°13.845 2°55.635 19.19586 3.974773 25.504565 0.97164
2004-05-17 06:36:58 51°13.906 2°55.637 19.129683 3.974457 25.50716 0.97164
2004-05-17 06:37:57 51°13.944 2°55.628 19.117596 3.97393 25.501912 1.005349
2004-05-17 06:38:57 51°13.955 2°55.623 19.131158 3.973508 25.505621 1.005349
2004-05-17 06:39:57 51°13.957 2°55.622 19.253672 3.973087 25.506347 1.005349
2004-05-17 06:40:57 51°13.955 2°55.624 19.220496 3.972665 25.50558 1.039059
2004-05-17 06:41:57 51°13.95 2°55.626 15.27634 2.389257 14.705065 7.578683
2004-05-17 06:42:57 51°13.954 2°55.624 14.324243 3.577669 28.565425 22.747913
2004-05-17 06:43:57 51°13.961 2°55.62 14.245411 3.500235 28.144658 22.242272
2004-05-17 06:44:57 51°13.968 2°55.615 14.187536 3.536794 28.558474 22.714204
2004-05-17 06:45:58 51°13.971 2°55.612 14.174414 3.53985 28.617285 22.849042
2004-05-17 06:46:57 51°13.97 2°55.611 14.152611 3.549438 28.728111 23.826614
2004-05-17 06:47:57 51°13.972 2°55.607 14.136574 3.586948 29.089186 23.725486
2004-05-17 06:48:58 51°13.993 2°55.583 14.124147 3.58031 29.046035 23.691777
2004-05-17 06:49:58 51°14.068 2°55.492 14.141068 3.569985 28.962794 23.759195
2004-05-17 06:50:59 51°14.197 2°55.351 14.179918 3.475901 28.087662 23.253554
2004-05-17 06:51:58 51°14.318 2°55.175 14.144637 3.48317 28.163862 23.860324
2004-05-17 06:52:58 51°14.421 2°54.96 14.125469 3.503714 28.37321 23.051298
2004-05-17 06:53:57 51°14.551 2°54.796 14.172916 3.546805 28.738376 23.860324
2004-05-17 06:54:57 51°14.704 2°54.693 14.000191 3.733634 30.452461 21.466956
2004-05-17 06:55:58 51°14.859 2°54.589 13.84446 3.763673 30.882895 19.478101
2004-05-17 06:56:57 51°15.007 2°54.482 13.737897 3.762726 30.973878 17.590375
2004-05-17 06:57:57 51°15.156 2°54.377 13.696839 3.756403 30.988247 16.882477
2004-05-17 06:58:58 51°15.311 2°54.294 13.662457 3.759249 31.030478 16.17458
2004-05-17 06:59:58 51°15.46 2°54.188 13.612294 3.753242 31.006329 15.770067
2004-05-17 07:00:58 51°15.607 2°54.068 13.574847 3.761147 31.127572 15.163298
2004-05-17 07:01:57 51°15.761 2°54.023 13.543781 3.754192 31.091605 14.725076
2004-05-17 07:02:55 51°15.911 2°54.029 13.52613 3.754403 31.111659 14.927332
2004-05-17 07:03:57 51°16.027 2°54.096 13.51986 3.758935 31.163449 15.432973
2004-05-17 07:04:57 51°16.102 2°54.134 13.530399 3.764521 31.21873 16.241999
2004-05-17 07:05:57 51°16.163 2°54.204 13.530532 3.750187 31.079674 17.185862
2004-05-17 07:06:57 51°16.248 2°54.281 13.534178 3.760094 31.172887 17.758922
2004-05-17 07:07:55 51°16.281 2°54.303 13.538402 3.764732 31.210011 18.871332
2004-05-17 07:08:58 51°16.282 2°54.287 13.539913 3.764942 31.212582 19.478101
2004-05-17 07:09:57 51°16.281 2°54.27 13.536534 3.764626 31.210293 19.275845
2004-05-17 07:10:57 51°16.278 2°54.251 13.538402 3.76294 31.194742 19.848905
2004-05-17 07:11:57 51°16.274 2°54.231 13.535112 3.757354 31.143864 19.916324
2004-05-17 07:12:57 51°16.269 2°54.21 13.543781 3.763256 31.196405 19.781486
2004-05-17 07:13:57 51°16.284 2°54.204 13.541202 3.766102 31.221392 19.57923
2004-05-17 07:14:57 51°16.418 2°54.035 13.569737 3.764731 31.204996 19.511811
2004-05-17 07:15:57 51°16.537 2°53.721 13.513367 3.772531 31.275662 18.096016
2004-05-17 07:16:57 51°16.665 2°53.416 13.447201 3.785811 31.445556 16.241999
2004-05-17 07:17:57 51°16.807 2°53.136 13.434958 3.787709 31.500494 17.354409
2004-05-17 07:18:56 51°16.951 2°52.892 13.440345 3.78813 31.5063 22.006306
2004-05-17 07:19:57 51°17.099 2°52.621 13.45784 3.795824 31.578155 27.197554
2004-05-17 07:20:57 51°17.256 2°52.375 13.459443 3.796351 31.572217 27.602067
2004-05-17 07:21:57 51°17.422 2°52.142 13.461089 3.797721 31.58299 29.11899
2004-05-17 07:22:57 51°17.588 2°51.906 13.458063 3.802464 31.626253 26.422238
2004-05-17 07:23:58 51°17.756 2°51.669 13.469234 3.805521 31.646261 31.478648
2004-05-17 07:24:56 51°17.916 2°51.441 13.414517 3.807207 31.666333 39.737452
2004-05-17 07:25:57 51°18.086 2°51.197 13.320605 3.800673 31.677959 46.074819
2004-05-17 07:26:57 51°18.225 2°50.994 13.235851 3.797091 31.715825 35.658614
2004-05-17 07:27:57 51°18.323 2°50.92 13.209855 3.794562 31.74116 30.433657
2004-05-17 07:28:57 51°18.393 2°50.96 13.165566 3.789187 31.716214 28.984153
2004-05-17 07:29:57 51°18.465 2°50.99 13.157786 3.785604 31.719544 31.815742
2004-05-17 07:30:56 51°18.478 2°50.97 13.16485 3.784972 31.696895 29.321247
2004-05-17 07:31:57 51°18.467 2°50.943 13.1025 3.783708 31.7212 33.467503
2004-05-17 07:32:57 51°18.457 2°50.918 13.083211 3.781916 31.733536 36.636187
2004-05-17 07:33:58 51°18.446 2°50.894 13.084957 3.780335 31.727173 37.950853
2004-05-17 07:34:58 51°18.434 2°50.872 13.116908 3.781179 31.733755 36.804734
2004-05-17 07:35:58 51°18.423 2°50.853 13.163241 3.783286 31.710172 32.658477
2004-05-17 07:36:58 51°18.428 2°50.899 13.169276 3.785499 31.705027 30.669623
2004-05-17 07:37:58 51°18.492 2°50.861 13.160558 3.784129 31.699986 29.826888
2004-05-17 07:38:58 51°18.443 2°50.642 13.170394 3.782864 31.697859 27.43352
2004-05-17 07:39:58 51°18.293 2°50.513 13.181747 3.786131 31.711565 23.995161
2004-05-17 07:41:05 51°18.07 2°50.445 13.146205 3.787501 31.708875 23.556939
2004-05-17 07:42:05 51°17.84 2°50.32 13.158815 3.788766 31.754839 31.242683
2004-05-17 07:43:04 51°17.606 2°50.218 13.180541 3.792876 31.77122 28.950443
2004-05-17 07:44:05 51°17.364 2°50.121 13.209721 3.800149 31.826096 28.849315
2004-05-17 07:45:05 51°17.134 2°49.999 13.248623 3.806472 31.857882 30.467366
2004-05-17 07:46:04 51°16.921 2°49.827 13.279067 3.811953 31.881134 31.849452
2004-05-17 07:47:04 51°16.716 2°49.6 13.331889 3.821544 31.936789 38.254238
2004-05-17 07:48:05 51°16.506 2°49.373 13.339202 3.828394 31.971413 36.939571
2004-05-17 07:49:04 51°16.312 2°49.133 13.316635 3.833137 32.009044 34.141691
2004-05-17 07:50:04 51°16.127 2°48.865 13.266748 3.837986 32.093068 23.927742
2004-05-17 07:51:04 51°15.956 2°48.577 13.222006 3.836933 32.119027 19.309554
2004-05-17 07:52:04 51°15.792 2°48.281 13.213875 3.838093 32.161789 18.298272
2004-05-17 07:53:05 51°15.606 2°48.016 13.192026 3.83862 32.172585 19.882614
2004-05-17 07:54:04 51°15.417 2°47.782 13.16865 3.837671 32.18268 21.972597
2004-05-17 07:55:05 51°15.224 2°47.541 13.124155 3.834088 32.174058 22.95017
2004-05-17 07:56:04 51°15.038 2°47.306 13.150945 3.829872 32.15101 20.556802
2004-05-17 07:57:13 51°14.813 2°47.03 13.150587 3.836934 32.202616 19.781486
2004-05-17 07:58:14 51°14.611 2°46.791 13.185502 3.835037 32.173109 18.601657
2004-05-17 07:59:14 51°14.413 2°46.554 13.19797 3.823442 32.042033 16.815059
2004-05-17 08:00:13 51°14.255 2°46.362 13.203153 3.816696 31.974557 16.275708
2004-05-17 08:01:14 51°14.163 2°46.269 13.21124 3.811215 31.919558 16.74764
2004-05-17 08:02:14 51°14.094 2°46.22 13.221023 3.810688 31.906224 15.63523
2004-05-17 08:03:14 51°13.967 2°46.09 13.226338 3.810583 31.900062 15.264426
2004-05-17 08:04:14 51°13.786 2°45.87 13.241567 3.81111 31.891384 15.702648
2004-05-17 08:05:14 51°13.598 2°45.638 13.259115 3.812796 31.896096 16.477965
2004-05-17 08:06:14 51°13.416 2°45.379 13.274693 3.811215 31.869744 16.545383
2004-05-17 08:07:13 51°13.238 2°45.121 13.264204 3.81385 31.889103 16.17458
2004-05-17 08:08:12 51°13.061 2°44.866 13.252954 3.81522 31.911556 16.680221
2004-05-17 08:09:13 51°12.877 2°44.603 13.22406 3.81659 31.9405 16.579093
2004-05-17 08:10:13 51°12.696 2°44.343 13.2057 3.816169 31.95407 16.376836
2004-05-17 08:11:12 51°12.518 2°44.088 13.189211 3.818172 31.990918 17.017315
2004-05-17 08:12:17 51°12.323 2°43.812 13.171064 3.819437 32.011167 16.073452
2004-05-17 08:13:22 51°12.128 2°43.541 13.166952 3.81891 32.017957 15.432973
2004-05-17 08:14:22 51°11.953 2°43.285 13.170573 3.820597 32.035652 15.837486
2004-05-17 08:15:22 51°11.774 2°43.045 13.187468 3.824602 32.069786 15.264426
2004-05-17 08:16:22 51°11.592 2°42.796 13.20561 3.828818 32.094149 15.365554
2004-05-17 08:17:21 51°11.413 2°42.547 13.246524 3.837882 32.152643 15.230717
2004-05-17 08:18:25 51°11.252 2°42.322 13.271792 3.850003 32.235007 15.298136
2004-05-17 08:19:26 51°11.158 2°42.219 13.310524 3.859805 32.310711 14.657657
2004-05-17 08:20:26 51°11.141 2°42.182 13.446756 3.860858 32.246723 14.387982
2004-05-17 08:21:26 51°11.135 2°42.172 13.440523 3.846733 32.04868 14.421691
2004-05-17 08:22:25 51°11.129 2°42.157 13.423335 3.850633 32.095864 14.961042
2004-05-17 08:23:25 51°11.122 2°42.14 13.430149 3.852003 32.115059 14.4554
2004-05-17 08:24:26 51°11.116 2°42.121 13.471059 3.852109 32.10503 15.02846
2004-05-17 08:25:26 51°11.109 2°42.1 13.495175 3.850949 32.063886 15.163298
2004-05-17 08:26:24 51°11.101 2°42.08 13.529376 3.850421 32.029972 14.657657
2004-05-17 08:27:26 51°11.093 2°42.056 13.774899 3.848418 31.983754 14.893623
2004-05-17 08:28:26 51°11.086 2°42.032 13.801032 3.853264 31.832309 14.387982
2004-05-17 08:29:26 51°11.08 2°42.006 13.799127 3.852631 31.824586 16.073452
2004-05-17 08:30:26 51°11.101 2°41.922 13.751947 3.852421 31.820107 14.859913
2004-05-17 08:31:26 51°11.177 2°41.788 13.51906 3.852211 31.907956 15.163298
2004-05-17 08:32:26 51°11.257 2°41.588 13.365594 3.867498 32.242058 14.657657
2004-05-17 08:33:26 51°11.402 2°41.386 13.270989 3.866129 32.31404 14.927332
2004-05-17 08:34:26 51°11.558 2°41.172 13.2438 3.864759 32.356251 15.399264
2004-05-17 08:35:26 51°11.738 2°41.021 13.245586 3.875195 32.470694 16.17458
2004-05-17 08:36:26 51°11.893 2°40.945 13.186083 3.895012 32.676956 15.938614
2004-05-17 08:37:26 51°12.052 2°40.911 13.167265 3.888478 32.662931 16.17458
2004-05-17 08:38:26 51°12.255 2°40.98 13.134711 3.878886 32.595033 16.073452
2004-05-17 08:39:26 51°12.455 2°41.116 13.093013 3.876145 32.595897 17.758922
2004-05-17 08:40:26 51°12.645 2°41.29 13.076855 3.878359 32.631918 16.983606
2004-05-17 08:41:26 51°12.834 2°41.469 13.081823 3.878254 32.643565 16.949896
2004-05-17 08:42:26 51°13.022 2°41.649 13.079764 3.880573 32.671972 16.309418
2004-05-17 08:43:24 51°13.203 2°41.823 13.082495 3.878465 32.652196 16.949896
2004-05-17 08:44:26 51°13.387 2°42.03 13.084151 3.877727 32.640618 17.051024
2004-05-17 08:45:24 51°13.56 2°42.221 13.095519 3.874775 32.605631 17.725212
2004-05-17 08:46:24 51°13.74 2°42.419 13.115968 3.874775 32.595005 17.354409
2004-05-17 08:47:24 51°13.92 2°42.617 13.063513 3.875303 32.620542 18.601657
2004-05-17 08:48:26 51°14.108 2°42.82 13.057424 3.873511 32.619695 18.466819
2004-05-17 08:49:26 51°14.291 2°43.016 13.036419 3.870665 32.604299 18.43311
2004-05-17 08:50:26 51°14.474 2°43.213 13.034448 3.867925 32.58789 18.669076
2004-05-17 08:51:26 51°14.658 2°43.408 13.028849 3.872562 32.616116 17.657794
2004-05-17 08:52:26 51°14.791 2°43.555 13.061812 3.867925 32.583236 18.601657
2004-05-17 08:53:25 51°14.872 2°43.64 13.092387 3.865711 32.536573 17.725212
2004-05-17 08:54:26 51°14.92 2°43.724 13.090775 3.863919 32.507181 17.725212
2004-05-17 08:55:25 51°14.929 2°43.752 13.131715 3.865394 32.507102 18.837623
2004-05-17 08:56:26 51°14.931 2°43.774 13.166594 3.86845 32.503305 19.612939
2004-05-17 08:57:27 51°14.929 2°43.793 13.216064 3.873088 32.520258 20.489383
2004-05-17 08:58:26 51°14.927 2°43.809 13.335768 3.882995 32.526371 21.062443
2004-05-17 08:59:24 51°14.924 2°43.814 13.445643 3.887632 32.493296 19.747777
2004-05-17 09:00:27 51°14.914 2°43.736 13.348654 3.893323 32.491161 20.287127
2004-05-17 09:01:27 51°14.89 2°43.626 13.279023 3.890689 32.552686 22.37711
2004-05-17 09:02:26 51°14.844 2°43.525 13.285048 3.887211 32.562425 22.073725
2004-05-17 09:03:26 51°14.791 2°43.462 13.195914 3.884471 32.555977 21.601794
2004-05-17 09:04:26 51°14.79 2°43.458 13.135516 3.877937 32.568928 21.568084
2004-05-17 09:05:25 51°14.787 2°43.458 13.111181 3.875935 32.587288 21.129862
2004-05-17 09:06:27 51°14.785 2°43.464 13.112434 3.874986 32.588352 21.23099
2004-05-17 09:07:26 51°14.764 2°43.526 13.19292 3.874881 32.585374 20.725349
2004-05-17 09:08:27 51°14.693 2°43.48 13.199489 3.872771 32.502107 19.747777
2004-05-17 09:09:26 51°14.624 2°43.187 13.187915 3.872454 32.441167 18.669076
2004-05-17 09:10:26 51°14.586 2°42.824 13.106259 3.877726 32.585503 19.747777
2004-05-17 09:11:26 51°14.559 2°42.46 13.115745 3.877832 32.63296 19.107298
2004-05-17 09:12:26 51°14.536 2°42.099 13.030193 3.87973 32.642769 21.871469
2004-05-17 09:13:26 51°14.508 2°41.742 13.044347 3.879413 32.609917 22.91646
2004-05-17 09:14:26 51°14.481 2°41.387 12.869987 3.885002 32.827299 27.062717
2004-05-17 09:15:26 51°14.457 2°41.033 12.926363 3.88827 32.899823 24.770477
2004-05-17 09:16:25 51°14.459 2°40.688 13.041436 3.909141 33.045231 20.893896
2004-05-17 09:17:27 51°14.46 2°40.325 13.021546 3.93212 33.170241 17.354409
2004-05-17 09:18:25 51°14.478 2°39.985 12.967224 3.934862 33.246894 16.444255
2004-05-17 09:19:27 51°14.54 2°39.639 12.971169 3.933808 33.252594 17.084734
2004-05-17 09:20:25 51°14.639 2°39.336 12.874701 3.919156 33.164722 18.062306
2004-05-17 09:21:26 51°14.773 2°39.044 12.797157 3.896915 33.027382 21.2647
2004-05-17 09:22:26 51°14.928 2°38.786 12.729242 3.882369 32.957692 22.815332
2004-05-17 09:23:27 51°15.091 2°38.534 12.698546 3.871934 32.88742 21.702922
2004-05-17 09:24:26 51°15.255 2°38.301 12.726587 3.867613 32.881746 21.2647
2004-05-17 09:25:26 51°15.423 2°38.077 12.789244 3.874674 32.86192 20.65793
2004-05-17 09:26:27 51°15.597 2°37.86 12.720917 3.889326 33.031672 20.287127
2004-05-17 09:27:26 51°15.767 2°37.65 12.684138 3.896916 33.138998 19.57923
2004-05-17 09:28:26 51°15.944 2°37.446 12.672294 3.899341 33.184553 19.478101
2004-05-17 09:29:26 51°16.134 2°37.262 12.621066 3.898498 33.197784 18.905042
2004-05-17 09:30:27 51°16.331 2°37.068 12.627466 3.895125 33.197981 19.646648
2004-05-17 09:31:27 51°16.52 2°36.882 12.667925 3.893966 33.182852 19.680358
2004-05-17 09:32:26 51°16.614 2°36.81 12.685173 3.897233 33.163871 18.230853
2004-05-17 09:33:26 51°16.628 2°36.796 12.754617 3.899657 33.158826 17.691503
2004-05-17 09:34:26 51°16.633 2°36.799 12.737927 3.903135 33.158316 18.669076
2004-05-17 09:35:26 51°16.636 2°36.802 12.712275 3.901238 33.163561 19.00617
2004-05-17 09:36:26 51°16.639 2°36.803 12.699446 3.899446 33.166397 20.523093
2004-05-17 09:37:33 51°16.641 2°36.804 12.668736 3.898392 33.175554 20.69164
2004-05-17 09:38:33 51°16.643 2°36.804 12.663826 3.897128 33.178613 20.995024
2004-05-17 09:39:33 51°16.644 2°36.804 12.706784 3.896706 33.173242 20.624221
2004-05-17 09:40:32 51°16.646 2°36.802 12.789155 3.901343 33.160461 20.65793
2004-05-17 09:41:32 51°16.649 2°36.8 12.861544 3.908089 33.156101 20.287127
2004-05-17 09:42:33 51°16.647 2°36.756 12.902265 3.913991 33.15811 20.017452
2004-05-17 09:43:32 51°16.692 2°36.522 12.817248 3.915361 33.163569 19.848905
2004-05-17 09:44:33 51°16.81 2°36.219 12.747914 3.906508 33.167731 17.961178
2004-05-17 09:45:33 51°16.951 2°35.935 12.752908 3.903241 33.175021 19.376973
2004-05-17 09:46:32 51°17.085 2°35.663 12.752503 3.915784 33.238449 17.657794
2004-05-17 09:47:32 51°17.217 2°35.4 12.646212 3.934866 33.503814 17.556665
2004-05-17 09:48:33 51°17.35 2°35.137 12.599563 3.938767 33.607388 17.590375
2004-05-17 09:49:32 51°17.48 2°34.883 12.615341 3.938978 33.648341 18.466819
2004-05-17 09:50:33 51°17.617 2°34.621 12.530318 3.936448 33.633287 18.163435
2004-05-17 09:51:32 51°17.754 2°34.356 12.542097 3.926961 33.575573 18.466819
2004-05-17 09:52:33 51°17.897 2°34.077 12.530634 3.92401 33.543263 17.28699
2004-05-17 09:53:33 51°18.038 2°33.802 12.576159 3.92538 33.549374 17.051024
2004-05-17 09:54:33 51°18.18 2°33.528 12.555363 3.933075 33.608104 17.28699
2004-05-17 09:55:32 51°18.316 2°33.259 12.564386 3.937186 33.643801 17.421828
2004-05-17 09:56:36 51°18.464 2°32.967 12.53271 3.939506 33.675665 17.590375
2004-05-17 09:57:33 51°18.597 2°32.702 12.522193 3.936976 33.678052 17.691503
2004-05-17 09:58:33 51°18.737 2°32.422 12.533974 3.936765 33.685119 17.522956
2004-05-17 09:59:42 51°18.899 2°32.097 12.518808 3.938979 33.705546 17.28699
2004-05-17 10:00:42 51°19.04 2°31.813 12.490091 3.93782 33.708459 16.882477
2004-05-17 10:01:48 51°19.192 2°31.497 12.46064 3.941825 33.740406 16.916187
2004-05-17 10:02:52 51°19.341 2°31.194 12.366551 3.939719 33.826949 16.74764
2004-05-17 10:03:52 51°19.483 2°30.914 12.384963 3.938665 33.840102 17.051024
2004-05-17 10:04:54 51°19.62 2°30.629 12.337768 3.943935 33.853945 16.815059
2004-05-17 10:05:57 51°19.759 2°30.355 12.233577 3.944569 33.969587 17.792631
2004-05-17 10:07:04 51°19.911 2°30.076 12.233804 3.942989 33.997003 17.86005
2004-05-17 10:08:01 51°20.023 2°29.941 12.203104 3.943516 34.016303 17.758922
2004-05-17 10:09:04 51°20.07 2°29.967 12.25896 3.937929 33.969657 17.556665
2004-05-17 10:10:08 51°20.082 2°30.013 12.231129 3.940353 33.955324 17.792631
2004-05-17 10:11:08 51°20.094 2°30.062 12.202061 3.940353 33.985163 18.466819
2004-05-17 10:12:14 51°20.108 2°30.114 12.199249 3.940143 33.999498 17.556665
2004-05-17 10:13:17 51°20.123 2°30.166 12.222015 3.94067 34.001012 18.264563
2004-05-17 10:14:24 51°20.14 2°30.219 12.189541 3.942251 34.016232 18.803913
2004-05-17 10:15:24 51°20.155 2°30.27 12.171574 3.941513 34.029076 18.298272
2004-05-17 10:16:24 51°20.169 2°30.324 12.164993 3.941619 34.045069 19.073589
2004-05-17 10:17:28 51°20.185 2°30.376 12.174206 3.941197 34.031734 18.837623
2004-05-17 10:18:34 51°20.201 2°30.433 12.174478 3.941619 34.044355 19.107298
2004-05-17 10:19:33 51°20.322 2°30.576 12.211948 3.941513 34.032641 19.983742
2004-05-17 10:20:44 51°20.444 2°30.993 12.224872 3.943832 34.00227 17.893759
2004-05-17 10:21:44 51°20.541 2°31.371 12.21671 3.94341 34.013865 17.927469
2004-05-17 10:22:50 51°20.649 2°31.787 12.22324 3.944992 34.039052 17.354409
2004-05-17 10:23:56 51°20.757 2°32.197 12.221335 3.948365 34.048006 17.657794
2004-05-17 10:24:56 51°20.856 2°32.564 12.202515 3.947311 34.064228 17.185862
2004-05-17 10:25:56 51°20.955 2°32.932 12.209409 3.945519 34.047689 18.028597
2004-05-17 10:26:56 51°21.054 2°33.303 12.287007 3.945308 34.04851 17.624084
2004-05-17 10:27:56 51°21.151 2°33.666 12.17239 3.956693 34.091771 16.511674
2004-05-17 10:28:54 51°21.259 2°34.008 12.356777 3.953426 34.189672 16.444255
2004-05-17 10:29:54 51°21.371 2°34.369 12.452778 3.958483 33.986202 15.972324
2004-05-17 10:30:54 51°21.484 2°34.734 12.52937 3.954687 33.923039 16.579093
2004-05-17 10:31:56 51°21.602 2°35.112 12.520884 3.959852 33.891476 15.938614
2004-05-17 10:32:57 51°21.717 2°35.487 12.549407 3.958166 33.912632 17.253281
2004-05-17 10:34:00 51°21.835 2°35.874 12.314045 3.96291 33.985489 16.545383
2004-05-17 10:35:01 51°21.947 2°36.249 12.23258 3.949629 34.021043 17.388118
2004-05-17 10:36:04 51°22.062 2°36.637 12.194713 3.944781 34.041298 17.590375
2004-05-17 10:37:10 51°22.187 2°37.033 12.4671 3.955111 34.036046 16.882477
2004-05-17 10:38:13 51°22.305 2°37.407 12.473922 3.934131 33.706104 17.118443
2004-05-17 10:39:18 51°22.428 2°37.79 12.408661 3.93002 33.682215 17.28699
2004-05-17 10:40:24 51°22.553 2°38.18 12.476451 3.924644 33.645518 16.410546
2004-05-17 10:41:24 51°22.666 2°38.534 12.551753 3.923167 33.564435 16.680221
2004-05-17 10:42:24 51°22.779 2°38.89 12.530092 3.927172 33.557417 16.815059
2004-05-17 10:43:28 51°22.9 2°39.268 12.497136 3.924643 33.593147 16.680221
2004-05-17 10:44:28 51°23.013 2°39.626 12.517454 3.924854 33.594462 15.972324
2004-05-17 10:45:28 51°23.126 2°39.984 12.686479 3.929491 33.588558 16.949896
2004-05-17 10:46:31 51°23.244 2°40.36 12.584728 3.952364 33.627732 16.039742
2004-05-17 10:47:28 51°23.356 2°40.698 12.29122 3.956796 33.960862 16.916187
2004-05-17 10:48:31 51°23.478 2°41.073 12.249715 3.940247 33.933032 17.051024
2004-05-17 10:49:36 51°23.606 2°41.46 12.206279 3.933079 33.896755 16.916187
2004-05-17 10:50:36 51°23.73 2°41.813 12.54124 3.922431 33.728855 17.624084
2004-05-17 10:51:41 51°23.858 2°42.201 12.596497 3.907249 33.373879 17.388118
2004-05-17 10:52:41 51°23.98 2°42.559 12.65797 3.912097 33.360642 17.354409
2004-05-17 10:53:44 51°24.108 2°42.936 12.597759 3.900291 33.249116 18.230853
2004-05-17 10:54:44 51°24.229 2°43.297 12.585359 3.898921 33.274611 16.882477
2004-05-17 10:55:44 51°24.349 2°43.656 12.533703 3.900502 33.314477 17.691503
2004-05-17 10:56:48 51°24.478 2°44.04 12.605649 3.902083 33.28954 17.624084
2004-05-17 10:57:54 51°24.614 2°44.435 12.628908 3.89871 33.240962 17.522956
2004-05-17 10:58:59 51°24.746 2°44.821 12.828302 3.896495 33.130904 17.388118
2004-05-17 10:59:58 51°24.866 2°45.171 12.819315 3.906822 33.036225 17.489247
2004-05-17 11:00:59 51°24.99 2°45.531 12.641661 3.900816 33.129538 18.601657
2004-05-17 11:01:58 51°25.11 2°45.881 12.614169 3.895863 33.187159 17.994888
2004-05-17 11:02:58 51°25.232 2°46.238 12.501245 3.89344 33.247933 17.421828
2004-05-17 11:03:58 51°25.354 2°46.595 12.512939 3.888064 33.22912 17.522956
2004-05-17 11:04:56 51°25.471 2°46.938 12.530905 3.885324 33.21059 18.230853
2004-05-17 11:05:58 51°25.597 2°47.304 12.539254 3.883426 33.159504 18.028597
2004-05-17 11:06:58 51°25.72 2°47.659 12.539976 3.881634 33.141765 17.624084
2004-05-17 11:07:59 51°25.842 2°48.011 12.561859 3.887115 33.163013 18.669076
2004-05-17 11:08:58 51°25.936 2°48.281 12.484446 3.885113 33.194124 19.141007
2004-05-17 11:09:59 51°25.985 2°48.492 12.531943 3.884691 33.166045 18.938751
2004-05-17 11:10:57 51°26.001 2°48.554 12.485801 3.910412 33.464996 18.905042
2004-05-17 11:11:57 51°26.005 2°48.573 12.406536 3.915578 33.533078 18.601657
2004-05-17 11:12:58 51°26.012 2°48.596 12.431808 3.913891 33.54833 20.421965
2004-05-17 11:13:58 51°26.022 2°48.621 12.369401 3.913681 33.563063 20.287127
2004-05-17 11:14:59 51°26.033 2°48.649 12.329303 3.909676 33.570862 20.185999
2004-05-17 11:15:59 51°26.045 2°48.68 12.300505 3.906725 33.576189 21.096153
2004-05-17 11:16:59 51°26.057 2°48.715 12.292307 3.904406 33.571476 21.399537
2004-05-17 11:17:57 51°26.056 2°48.802 12.28003 3.903984 33.576544 21.23099
2004-05-17 11:18:57 51°26.068 2°49.114 12.599653 3.911467 33.535619 20.489383
2004-05-17 11:19:58 51°26.123 2°49.516 12.390707 3.923588 33.558018 18.028597
2004-05-17 11:20:57 51°26.175 2°49.91 12.350984 3.908832 33.560691 21.871469
2004-05-17 11:21:59 51°26.226 2°50.324 12.243188 3.898081 33.510153 21.80405
2004-05-17 11:22:59 51°26.275 2°50.726 12.384058 3.904721 33.482279 20.253418
2004-05-17 11:23:59 51°26.358 2°51.118 13.009762 3.921476 33.276588 18.43311
2004-05-17 11:25:04 51°26.439 2°51.548 12.757271 3.907035 33.165898 18.837623
2004-05-17 11:26:06 51°26.517 2°51.956 13.056125 3.890801 32.976409 18.803913
2004-05-17 11:27:06 51°26.576 2°52.355 12.928965 3.935702 33.071086 18.871332
2004-05-17 11:28:06 51°26.631 2°52.753 13.174283 3.913566 32.890512 19.275845
2004-05-17 11:29:04 51°26.679 2°53.137 13.376558 3.914404 32.592627 19.57923
2004-05-17 11:30:04 51°26.729 2°53.533 13.164985 3.897542 32.652244 19.275845
2004-05-17 11:31:06 51°26.786 2°53.941 13.321453 3.874566 32.700956 19.882614
2004-05-17 11:32:06 51°26.842 2°54.335 13.016618 3.903129 32.744209 19.107298
2004-05-17 11:33:06 51°26.898 2°54.733 12.597985 3.871512 32.843518 20.590512
2004-05-17 11:34:05 51°26.953 2°55.125 12.648194 3.856652 32.870817 21.568084
2004-05-17 11:35:06 51°27.008 2°55.53 12.68864 3.858759 32.846666 20.11858
2004-05-17 11:36:06 51°27.063 2°55.927 12.812394 3.863502 32.853649 21.062443
2004-05-17 11:37:04 51°27.116 2°56.307 12.916132 3.890904 32.805013 18.905042
2004-05-17 11:38:06 51°27.171 2°56.716 12.620345 3.877098 32.863209 20.624221
2004-05-17 11:39:06 51°27.225 2°57.116 12.650672 3.858549 32.886112 22.073725
2004-05-17 11:40:06 51°27.278 2°57.513 12.68711 3.862976 32.888693 21.871469
2004-05-17 11:41:04 51°27.326 2°57.897 12.7588 3.859076 32.887715 21.80405
2004-05-17 11:42:06 51°27.38 2°58.307 12.619488 3.867824 32.890526 22.680494
2004-05-17 11:43:06 51°27.43 2°58.702 12.59573 3.864135 32.885424 23.725486
2004-05-17 11:44:06 51°27.496 2°59.091 12.7941 3.864557 32.901652 28.040289
2004-05-17 11:45:04 51°27.58 2°59.458 12.722807 3.884476 32.875501 21.365828
2004-05-17 11:46:06 51°27.661 2°59.855 12.979239 3.877942 32.900243 25.107571
2004-05-17 11:47:05 51°27.734 3°0.234 12.787626 3.890589 32.895395 20.051161
2004-05-17 11:48:06 51°27.811 3°0.626 12.79428 3.876045 32.907351 21.399537
2004-05-17 11:49:06 51°27.885 3°1.013 12.822281 3.893013 32.879862 21.129862
2004-05-17 11:50:09 51°27.966 3°1.422 12.775306 3.877731 32.904341 22.444529
2004-05-17 11:51:08 51°28.044 3°1.807 13.241434 3.87088 32.890317 25.646922
2004-05-17 11:52:08 51°28.113 3°2.204 13.217583 3.911877 32.768193 18.601657
2004-05-17 11:53:08 51°28.169 3°2.607 13.206995 3.903867 32.761742 20.084871
2004-05-17 11:54:09 51°28.226 3°3.018 13.078287 3.899125 32.790595 20.388255
2004-05-17 11:55:09 51°28.275 3°3.369 12.988115 3.890377 32.810777 21.905178
2004-05-17 11:56:09 51°28.303 3°3.565 13.035882 3.888585 32.822087 21.298409
2004-05-17 11:57:09 51°28.32 3°3.599 13.097981 3.893433 32.793309 20.556802
2004-05-17 11:58:08 51°28.336 3°3.622 12.968389 3.893328 32.825112 23.759195
2004-05-17 11:59:09 51°28.353 3°3.65 12.907785 3.885845 32.827849 27.366101
2004-05-17 12:00:09 51°28.368 3°3.682 12.872591 3.881946 32.83683 28.276255
2004-05-17 12:01:08 51°28.382 3°3.717 12.866843 3.8791 32.833559 28.57964
2004-05-17 12:02:08 51°28.396 3°3.755 12.873893 3.8791 32.836253 29.11899
2004-05-17 12:03:09 51°28.41 3°3.797 12.923716 3.880997 32.825198 27.366101
2004-05-17 12:04:09 51°28.422 3°3.84 12.95821 3.882999 32.81919 26.388529
2004-05-17 12:05:09 51°28.434 3°3.89 12.990491 3.885634 32.805727 25.410956
2004-05-17 12:06:09 51°28.435 3°4.075 13.127689 3.892169 32.832312 25.579503
2004-05-17 12:07:09 51°28.351 3°4.371 13.035837 3.903341 32.832787 21.837759
2004-05-17 12:08:09 51°28.213 3°4.674 12.952335 3.891326 32.855925 22.882751
2004-05-17 12:09:09 51°28.073 3°4.976 12.950272 3.886899 32.831054 22.815332
2004-05-17 12:10:08 51°27.934 3°5.271 12.994749 3.888269 32.842609 21.905178
2004-05-17 12:11:08 51°27.792 3°5.568 13.014871 3.890694 32.838561 22.613076
2004-05-17 12:12:08 51°27.652 3°5.864 12.988564 3.889956 32.824242 26.927879
2004-05-17 12:13:09 51°27.509 3°6.165 13.086389 3.889744 32.792111 26.152563
2004-05-17 12:14:08 51°27.37 3°6.454 13.113194 3.8928 32.764664 24.770477
2004-05-17 12:15:09 51°27.224 3°6.745 13.108049 3.891114 32.734177 24.972734
2004-05-17 12:16:09 51°27.067 3°7.007 13.119189 3.888373 32.71648 27.500939
2004-05-17 12:17:09 51°26.907 3°7.263 13.150051 3.887319 32.683968 29.017862
2004-05-17 12:18:13 51°26.748 3°7.557 13.170126 3.888372 32.675228 33.298956
2004-05-17 12:19:16 51°26.616 3°7.881 13.200964 3.890691 32.675017 34.78217
2004-05-17 12:20:14 51°26.521 3°8.139 13.209185 3.890585 32.654126 31.95058
2004-05-17 12:21:14 51°26.454 3°8.291 13.206057 3.888056 32.631793 34.883298
2004-05-17 12:22:14 51°26.453 3°8.334 13.198327 3.884366 32.603916 37.141828
2004-05-17 12:23:14 51°26.467 3°8.348 13.192786 3.882258 32.586186 38.490204
2004-05-17 12:24:14 51°26.481 3°8.367 13.191803 3.881731 32.580596 37.681178
2004-05-17 12:25:14 51°26.493 3°8.391 13.193322 3.881099 32.577328 37.209247
2004-05-17 12:26:15 51°26.506 3°8.418 13.198104 3.880783 32.575033 36.973281
2004-05-17 12:27:16 51°26.517 3°8.448 13.203153 3.881309 32.574006 35.35523
2004-05-17 12:28:13 51°26.528 3°8.478 13.205968 3.881099 32.568067 33.737178
2004-05-17 12:29:15 51°26.539 3°8.511 13.197076 3.880677 32.560819 34.579913
2004-05-17 12:30:15 51°26.551 3°8.545 13.190954 3.878991 32.55563 33.433794
2004-05-17 12:31:14 51°26.565 3°8.58 13.188764 3.878147 32.553696 33.130409
2004-05-17 12:32:19 51°26.58 3°8.619 13.193993 3.878147 32.553034 32.422512
2004-05-17 12:33:18 51°26.595 3°8.662 13.199712 3.878042 32.546098 31.782033
2004-05-17 12:34:18 51°26.572 3°8.794 13.208336 3.87899 32.543071 32.287674
2004-05-17 12:35:19 51°26.482 3°8.817 13.248489 3.880888 32.554858 32.928153
2004-05-17 12:36:19 51°26.375 3°8.802 13.259918 3.881098 32.526461 26.489657
2004-05-17 12:37:19 51°26.23 3°8.716 13.231653 3.878252 32.50648 29.928016
2004-05-17 12:38:19 51°26.091 3°8.604 13.215975 3.869503 32.447831 34.20911
2004-05-17 12:39:18 51°26.014 3°8.519 13.169366 3.861704 32.394048 40.344221
2004-05-17 12:40:18 51°25.981 3°8.447 13.139944 3.857909 32.384246 43.580324
2004-05-17 12:41:18 51°25.983 3°8.433 13.134711 3.854958 32.374423 43.917418
2004-05-17 12:42:18 51°25.988 3°8.423 13.129299 3.85401 32.376086 41.658888
2004-05-17 12:43:19 51°26.032 3°8.345 13.127868 3.854115 32.377072 38.1194
2004-05-17 12:44:19 51°26.208 3°8.412 13.143656 3.854431 32.382008 35.928289
2004-05-17 12:45:21 51°26.234 3°8.761 13.144327 3.854431 32.38069 40.276802
2004-05-17 12:46:21 51°26.212 3°9.135 13.187334 3.85675 32.383939 43.614033
2004-05-17 12:47:21 51°26.191 3°9.512 13.203421 3.860439 32.384203 38.625042
2004-05-17 12:48:20 51°26.162 3°9.882 13.221291 3.866447 32.425202 32.48993
2004-05-17 12:49:21 51°26.13 3°10.263 13.258936 3.876882 32.50687 29.793178
2004-05-17 12:50:21 51°26.098 3°10.634 13.269382 3.893642 32.63038 28.107708
2004-05-17 12:51:21 51°26.066 3°11.003 13.237682 3.905132 32.742344 28.54593
2004-05-17 12:52:20 51°26.036 3°11.364 13.239826 3.906502 32.776412 28.343674
2004-05-17 12:53:21 51°26.005 3°11.738 13.257374 3.907451 32.781958 27.062717
2004-05-17 12:54:20 51°25.981 3°12.041 13.261525 3.908399 32.783514 26.89417
2004-05-17 12:55:21 51°25.961 3°12.286 13.342635 3.91114 32.773912 23.691777
2004-05-17 12:56:21 51°25.959 3°12.415 13.371656 3.916831 32.76669 23.455811
2004-05-17 12:57:20 51°25.974 3°12.421 13.333227 3.914196 32.752713 28.208836
2004-05-17 12:58:21 51°25.974 3°12.459 13.319802 3.910296 32.740175 37.849725
2004-05-17 12:59:21 51°25.919 3°12.729 13.351017 3.908188 32.733752 41.119537
2004-05-17 13:00:21 51°25.868 3°13.078 13.330863 3.911139 32.728838 29.961725
2004-05-17 13:01:20 51°25.841 3°13.44 13.330818 3.910296 32.720973 27.096426
2004-05-17 13:02:20 51°25.81 3°13.814 13.339915 3.908609 32.716493 25.040153
2004-05-17 13:03:20 51°25.808 3°14.193 13.393713 3.909242 32.716436 22.107435
2004-05-17 13:04:20 51°25.824 3°14.576 13.363187 3.912298 32.707905 21.837759
2004-05-17 13:05:20 51°25.839 3°14.959 13.389035 3.91019 32.695528 22.208563
2004-05-17 13:06:21 51°25.853 3°15.35 13.45005 3.912509 32.686102 23.725486
2004-05-17 13:07:20 51°25.871 3°15.692 13.477022 3.917568 32.683088 25.006443
2004-05-17 13:08:21 51°25.92 3°15.925 13.531777 3.920097 32.668441 24.871606
2004-05-17 13:09:21 51°25.938 3°15.991 13.557738 3.922521 32.657451 24.129999
2004-05-17 13:10:21 51°25.952 3°15.997 13.480137 3.919043 32.652081 30.635913
2004-05-17 13:11:21 51°25.921 3°16.138 13.456995 3.913667 32.642881 37.647469
2004-05-17 13:12:20 51°25.907 3°16.486 13.578224 3.915037 32.624076 38.051982
2004-05-17 13:13:21 51°25.895 3°16.872 13.499 3.917567 32.635095 28.00658
2004-05-17 13:14:20 51°25.883 3°17.249 13.497221 3.911981 32.616691 27.568358
2004-05-17 13:15:21 51°25.871 3°17.63 13.493084 3.91061 32.606585 26.927879
2004-05-17 13:16:21 51°25.872 3°17.835 13.527909 3.91198 32.599625 25.950306
2004-05-17 13:17:20 51°25.881 3°17.858 13.590708 3.916512 32.591225 23.085007
2004-05-17 13:18:22 51°25.888 3°17.87 13.553693 3.91841 32.601618 25.17499
2004-05-17 13:19:22 51°25.897 3°17.885 13.542491 3.915985 32.598125 25.512084
2004-05-17 13:20:21 51°25.91 3°17.927 13.522573 3.91451 32.598848 27.534648
2004-05-17 13:21:19 51°25.859 3°18.123 13.54467 3.913034 32.594984 29.253828
2004-05-17 13:22:21 51°25.673 3°18.271 13.441592 3.913034 32.575328 25.107571
2004-05-17 13:23:21 51°25.462 3°18.36 13.315833 3.886261 32.461513 24.096289
2004-05-17 13:24:20 51°25.249 3°18.351 13.306955 3.869924 32.376216 25.073862
2004-05-17 13:25:20 51°25.036 3°18.267 13.303074 3.866657 32.369354 28.512221
2004-05-17 13:26:20 51°24.844 3°18.104 13.25215 3.878883 32.433469 24.534512
2004-05-17 13:27:20 51°24.675 3°17.881 13.296248 3.871506 32.42574 28.512221
2004-05-17 13:28:21 51°24.5 3°17.653 13.369695 3.861913 32.269571 25.040153
2004-05-17 13:29:21 51°24.352 3°17.387 13.348164 3.854956 32.196374 27.332392
2004-05-17 13:30:21 51°24.23 3°17.094 13.347629 3.864653 32.28594 26.455947
2004-05-17 13:31:21 51°24.106 3°16.8 13.290893 3.86128 32.270862 26.422238
2004-05-17 13:32:21 51°23.992 3°16.5 13.334297 3.860016 32.275406 26.523366
2004-05-17 13:33:20 51°23.893 3°16.194 13.388545 3.862545 32.268281 26.186272
2004-05-17 13:34:21 51°23.79 3°15.883 13.344731 3.85875 32.236884 26.422238
2004-05-17 13:35:21 51°23.688 3°15.578 13.39358 3.854639 32.176525 25.377247
2004-05-17 13:36:21 51°23.571 3°15.284 13.447424 3.853796 32.156995 25.343537
2004-05-17 13:37:21 51°23.456 3°14.991 13.450139 3.860224 32.138902 23.253554
2004-05-17 13:38:21 51°23.334 3°14.707 13.559071 3.854427 32.092261 23.556939
2004-05-17 13:39:20 51°23.208 3°14.436 13.429124 3.84104 31.919974 22.478238
2004-05-17 13:40:21 51°23.079 3°14.154 13.418525 3.812056 31.753438 22.747913
2004-05-17 13:41:26 51°22.942 3°13.849 13.439677 3.805942 31.664192 22.95017
2004-05-17 13:42:26 51°22.814 3°13.565 13.38351 3.799619 31.637517 22.37711
2004-05-17 13:43:28 51°22.68 3°13.271 13.426853 3.799514 31.640369 23.287264
2004-05-17 13:44:28 51°22.585 3°13.043 13.664676 3.80689 31.612474 23.725486
2004-05-17 13:45:28 51°22.587 3°13.011 13.832687 3.815741 31.546593 24.568221
2004-05-17 13:46:28 51°22.588 3°13.028 13.790004 3.82217 31.51755 24.264836
2004-05-17 13:47:29 51°22.59 3°13.044 13.726948 3.820484 31.530983 24.60193
2004-05-17 13:48:28 51°22.599 3°13.058 13.690896 3.817112 31.552262 24.905315
2004-05-17 13:49:28 51°22.661 3°13.132 13.910634 3.815531 31.554749 25.343537
2004-05-17 13:50:28 51°22.659 3°13.333 14.015246 3.837556 31.523785 23.927742
2004-05-17 13:51:28 51°22.563 3°13.406 14.037578 3.843669 31.550285 22.983879
2004-05-17 13:52:26 51°22.506 3°13.33 13.83645 3.834078 31.530757 23.152426
2004-05-17 13:53:28 51°22.501 3°13.343 13.750307 3.821221 31.511984 23.219845
2004-05-17 13:54:28 51°22.497 3°13.364 13.674393 3.814793 31.530299 23.422101
2004-05-17 13:55:28 51°22.464 3°13.226 13.683665 3.812264 31.538555 25.006443
2004-05-17 13:56:28 51°22.404 3°12.906 13.649764 3.812369 31.522493 24.06258
2004-05-17 13:57:28 51°22.343 3°12.569 13.695464 3.806045 31.490128 25.040153
2004-05-17 13:58:28 51°22.283 3°12.23 13.711962 3.805096 31.43923 24.568221
2004-05-17 13:59:28 51°22.252 3°11.878 13.65225 3.80478 31.456444 25.377247
2004-05-17 14:00:32 51°22.227 3°11.495 13.689432 3.802356 31.457424 25.276118
2004-05-17 14:01:31 51°22.199 3°11.145 13.751725 3.802988 31.450654 25.984016
2004-05-17 14:02:34 51°22.117 3°10.801 13.864859 3.814686 31.450131 24.399674
2004-05-17 14:03:36 51°22.011 3°10.479 13.856541 3.822802 31.509538 25.040153
2004-05-17 14:04:35 51°21.896 3°10.187 13.87782 3.830812 31.537809 25.512084
2004-05-17 14:05:35 51°21.78 3°9.889 13.882819 3.831339 31.54703 25.950306
2004-05-17 14:06:35 51°21.648 3°9.608 13.912137 3.833446 31.548781 25.444665
2004-05-17 14:07:38 51°21.51 3°9.311 13.831448 3.831022 31.546015 24.096289
2004-05-17 14:08:38 51°21.427 3°9.091 13.820912 3.825648 31.539418 25.74805
2004-05-17 14:09:38 51°21.431 3°9.007 13.889674 3.824594 31.522837 26.118853
2004-05-17 14:10:38 51°21.434 3°9.007 13.857337 3.828914 31.519796 24.837896
2004-05-17 14:11:38 51°21.451 3°8.958 13.81157 3.825753 31.524683 25.512084
2004-05-17 14:12:38 51°21.464 3°8.713 13.858045 3.825858 31.515609 26.388529
2004-05-17 14:13:38 51°21.407 3°8.397 13.912314 3.830179 31.52637 25.410956
2004-05-17 14:14:36 51°21.261 3°8.153 13.930349 3.834394 31.510497 24.905315
2004-05-17 14:15:38 51°21.116 3°7.871 13.829456 3.827334 31.522865 25.74805
2004-05-17 14:16:38 51°20.976 3°7.596 13.82255 3.821537 31.502955 25.646922
2004-05-17 14:17:38 51°20.836 3°7.322 13.825074 3.818691 31.487511 26.186272
2004-05-17 14:18:38 51°20.702 3°7.043 13.844814 3.819745 31.472093 26.995298
2004-05-17 14:19:38 51°20.568 3°6.764 13.885295 3.820166 31.46155 26.89417
2004-05-17 14:20:38 51°20.43 3°6.488 13.917132 3.823222 31.450762 26.219982
2004-05-17 14:21:38 51°20.295 3°6.211 13.980849 3.822274 31.433956 26.927879
2004-05-17 14:22:42 51°20.148 3°5.916 14.091614 3.826594 31.407377 28.411093
2004-05-17 14:23:42 51°20.012 3°5.633 14.034136 3.830388 31.399726 26.219982
2004-05-17 14:24:42 51°19.877 3°5.348 14.004209 3.825434 31.375643 28.309965
2004-05-17 14:25:48 51°19.725 3°5.037 14.026457 3.822167 31.342714 29.017862
2004-05-17 14:26:48 51°19.587 3°4.755 14.061051 3.820059 31.310457 28.984153
2004-05-17 14:27:48 51°19.447 3°4.475 14.060168 3.820585 31.296063 28.54593
2004-05-17 14:28:48 51°19.312 3°4.187 14.036122 3.817951 31.29061 29.051571
2004-05-17 14:29:48 51°19.178 3°3.9 14.012067 3.813524 31.269424 29.860597
2004-05-17 14:30:48 51°19.044 3°3.616 14.011891 3.810046 31.251306 28.748187
2004-05-17 14:31:50 51°18.908 3°3.322 14.018027 3.807622 31.237227 28.478512
2004-05-17 14:32:50 51°18.771 3°3.043 14.019969 3.808992 31.236115 28.478512
2004-05-17 14:33:50 51°18.66 3°2.735 14.001869 3.810046 31.238307 28.57964
2004-05-17 14:34:50 51°18.551 3°2.425 14.060742 3.810783 31.225867 28.242546
2004-05-17 14:35:50 51°18.44 3°2.115 14.05086 3.81131 31.228818 29.422375
2004-05-17 14:36:50 51°18.327 3°1.803 14.029988 3.808887 31.232678 27.635777
2004-05-17 14:37:50 51°18.213 3°1.492 13.992332 3.809835 31.239477 29.253828
2004-05-17 14:38:48 51°18.103 3°1.191 13.95947 3.807728 31.245621 28.815606
2004-05-17 14:39:48 51°17.98 3°0.89 13.980629 3.807622 31.250855 27.939161
2004-05-17 14:40:48 51°17.863 3°0.585 14.199819 3.818267 31.274306 27.972871
2004-05-17 14:41:48 51°17.744 3°0.281 14.156267 3.833021 31.307943 27.399811
2004-05-17 14:42:48 51°17.623 2°59.976 14.313389 3.834918 31.30422 26.186272
2004-05-17 14:43:48 51°17.501 2°59.666 14.191411 3.84219 31.300677 26.759332
2004-05-17 14:44:48 51°17.376 2°59.358 14.044992 3.825117 31.288501 27.43352
2004-05-17 14:45:52 51°17.247 2°59.026 14.072387 3.818161 31.283245 26.995298
2004-05-17 14:46:51 51°17.128 2°58.719 14.000456 3.816265 31.29629 25.579503
2004-05-17 14:47:52 51°17.003 2°58.401 14.015378 3.820375 31.312102 24.905315
2004-05-17 14:48:52 51°16.88 2°58.085 13.984383 3.817003 31.312327 25.512084
2004-05-17 14:49:53 51°16.756 2°57.765 14.054301 3.814368 31.331112 24.703059
2004-05-17 14:50:52 51°16.634 2°57.457 14.136353 3.828384 31.325051 24.399674
2004-05-17 14:51:49 51°16.518 2°57.159 13.982616 3.825539 31.33503 24.905315
2004-05-17 14:52:53 51°16.387 2°56.825 13.896617 3.811417 31.32092 24.197418
2004-05-17 14:53:56 51°16.259 2°56.496 13.936934 3.809204 31.314983 24.096289
2004-05-17 14:54:56 51°16.116 2°56.206 14.106824 3.811733 31.322568 22.983879
2004-05-17 14:55:56 51°15.973 2°55.916 14.133093 3.830071 31.349077 25.377247
2004-05-17 14:56:56 51°15.822 2°55.642 14.252361 3.837027 31.362281 25.579503
2004-05-17 14:57:58 51°15.65 2°55.38 14.141905 3.843667 31.388045 24.467093
2004-05-17 14:58:57 51°15.495 2°55.159 13.926194 3.821535 31.34377 23.388392
2004-05-17 14:59:58 51°15.371 2°55.02 13.754429 3.812471 31.327449 23.388392
2004-05-17 15:00:58 51°15.253 2°54.948 13.746806 3.79835 31.359039 23.556939
2004-05-17 15:01:58 51°15.085 2°54.934 13.900243 3.802882 31.35059 23.691777
2004-05-17 15:02:58 51°14.907 2°54.935 14.062506 3.818795 31.34732 24.129999
2004-05-17 15:03:58 51°14.741 2°54.946 14.274176 3.802034 31.060077 27.939161
2004-05-17 15:04:58 51°14.621 2°54.967 14.339313 3.80024 30.927301 31.242683
2004-05-17 15:05:58 51°14.537 2°54.983 14.300115 3.809093 30.977664 31.714614
2004-05-17 15:06:58 51°14.459 2°55.006 14.271669 3.809727 31.02478 32.658477